createdAt,value
2022-11-12T00:00:14.073Z,2.63
2022-11-12T00:03:21.532Z,2.70
2022-11-12T00:06:28.887Z,2.80
2022-11-12T00:09:35.568Z,3.00
2022-11-12T00:12:43.931Z,3.25
2022-11-12T00:15:50.282Z,2.78
2022-11-12T00:18:57.125Z,3.10
2022-11-12T00:22:03.942Z,2.90
2022-11-12T00:25:11.412Z,3.10
2022-11-12T00:28:19.521Z,2.92
2022-11-12T00:31:27.270Z,3.15
2022-11-12T00:34:34.011Z,2.95
2022-11-12T00:37:40.920Z,3.20
2022-11-12T00:40:47.771Z,2.87
2022-11-12T00:43:55.739Z,3.30
2022-11-12T00:47:02.261Z,2.90
2022-11-12T00:50:10.257Z,2.60
2022-11-12T00:53:18.090Z,2.58
2022-11-12T00:56:24.682Z,2.83
2022-11-12T00:59:32.868Z,2.90
2022-11-12T01:02:44.176Z,3.08
2022-11-12T01:05:52.529Z,2.85
2022-11-12T01:08:59.196Z,3.10
2022-11-12T01:12:06.133Z,3.27
2022-11-12T01:15:14.261Z,3.20
2022-11-12T01:18:20.763Z,3.72
2022-11-12T01:21:32.768Z,3.03
2022-11-12T01:24:39.193Z,3.67
2022-11-12T01:27:46.314Z,2.87
2022-11-12T01:30:55.330Z,3.30
2022-11-12T01:34:04.383Z,3.10
2022-11-12T01:37:10.742Z,3.13
2022-11-12T01:40:17.704Z,3.72
2022-11-12T01:43:24.142Z,3.23
2022-11-12T01:46:32.360Z,2.95
2022-11-12T01:49:51.880Z,3.58
2022-11-12T01:53:04.307Z,3.05
2022-11-12T01:56:11.118Z,3.50
2022-11-12T01:59:22.872Z,3.80
2022-11-12T02:02:31.611Z,3.05
2022-11-12T02:05:40.004Z,3.63
2022-11-12T02:08:47.425Z,4.03
2022-11-12T02:11:54.162Z,3.70
2022-11-12T02:14:59.874Z,3.27
2022-11-12T02:18:08.799Z,3.42
2022-11-12T02:21:15.969Z,3.72
2022-11-12T02:24:37.029Z,3.65
2022-11-12T02:27:44.447Z,3.03
2022-11-12T02:30:51.240Z,3.17
2022-11-12T02:33:58.103Z,3.20
2022-11-12T02:37:04.491Z,3.20
2022-11-12T02:40:12.760Z,4.10
2022-11-12T02:43:19.193Z,3.67
2022-11-12T02:46:25.940Z,3.57
2022-11-12T02:49:32.551Z,3.45
2022-11-12T02:52:40.037Z,3.75
2022-11-12T02:55:47.760Z,4.05
2022-11-12T02:58:54.171Z,3.90
2022-11-12T03:02:00.675Z,3.40
2022-11-12T03:05:07.801Z,3.53
2022-11-12T03:08:14.248Z,4.47
2022-11-12T03:11:22.543Z,3.63
2022-11-12T03:14:29.261Z,4.45
2022-11-12T03:17:36.381Z,4.20
2022-11-12T03:20:42.981Z,3.92
2022-11-12T03:23:49.721Z,3.85
2022-11-12T03:26:57.761Z,4.40
2022-11-12T03:30:04.076Z,4.20
2022-11-12T03:33:12.251Z,3.80
2022-11-12T03:36:19.091Z,3.72
2022-11-12T03:39:25.789Z,3.63
2022-11-12T03:42:34.208Z,3.90
2022-11-12T03:45:40.613Z,3.55
2022-11-12T03:48:47.448Z,3.53
2022-11-12T03:51:54.277Z,4.22
2022-11-12T03:55:01.358Z,4.78
2022-11-12T03:58:09.452Z,4.32
2022-11-12T04:01:16.158Z,4.15
2022-11-12T04:04:23.002Z,4.17
2022-11-12T04:07:47.181Z,3.88
2022-11-12T04:10:54.126Z,4.63
2022-11-12T04:14:02.334Z,4.32
2022-11-12T04:17:26.849Z,4.45
2022-11-12T04:21:02.532Z,4.03
2022-11-12T04:24:09.001Z,3.95
2022-11-12T04:27:15.931Z,4.18
2022-11-12T04:30:24.132Z,4.45
2022-11-12T04:33:31.125Z,4.47
2022-11-12T04:36:37.852Z,4.20
2022-11-12T04:39:44.879Z,4.10
2022-11-12T04:43:09.282Z,4.07
2022-11-12T04:46:17.627Z,3.15
2022-11-12T04:49:24.113Z,4.25
2022-11-12T04:52:31.935Z,4.60
2022-11-12T04:55:38.238Z,4.90
2022-11-12T04:58:44.891Z,5.30
2022-11-12T05:01:53.409Z,4.78
2022-11-12T05:04:59.929Z,4.57
2022-11-12T05:08:06.633Z,4.20
2022-11-12T05:11:13.154Z,4.80
2022-11-12T05:14:19.741Z,4.38
2022-11-12T05:17:27.792Z,4.63
2022-11-12T05:20:34.347Z,4.63
2022-11-12T05:23:41.090Z,4.57
2022-11-12T05:26:48.188Z,4.75
2022-11-12T05:29:55.741Z,4.85
2022-11-12T05:33:05.365Z,6.30
2022-11-12T05:36:11.771Z,5.78
2022-11-12T05:39:18.394Z,5.53
2022-11-12T05:42:24.628Z,6.10
2022-11-12T05:45:31.376Z,6.05
2022-11-12T05:48:39.668Z,6.15
2022-11-12T05:51:46.681Z,6.47
2022-11-12T05:54:53.107Z,6.53
2022-11-12T05:57:59.902Z,6.30
2022-11-12T06:01:07.065Z,6.15
2022-11-12T06:04:16.801Z,6.35
2022-11-12T06:07:23.652Z,6.38
2022-11-12T06:10:30.424Z,6.10
2022-11-12T06:13:37.228Z,6.50
2022-11-12T06:16:44.185Z,6.72
2022-11-12T06:19:52.663Z,6.57
2022-11-12T06:22:59.197Z,7.10
2022-11-12T06:26:06.494Z,6.10
2022-11-12T06:29:13.719Z,5.20
2022-11-12T06:32:20.481Z,6.18
2022-11-12T06:35:28.241Z,5.43
2022-11-12T06:38:36.451Z,5.13
2022-11-12T06:41:43.189Z,5.10
2022-11-12T06:44:49.721Z,6.07
2022-11-12T06:47:59.231Z,5.70
2022-11-12T06:51:12.836Z,5.80
2022-11-12T06:54:19.165Z,6.03
2022-11-12T06:57:25.971Z,5.60
2022-11-12T07:00:32.694Z,6.18
2022-11-12T07:03:40.003Z,6.40
2022-11-12T07:06:48.063Z,5.88
2022-11-12T07:09:54.367Z,5.80
2022-11-12T07:13:01.290Z,6.00
2022-11-12T07:16:09.500Z,7.20
2022-11-12T07:19:16.042Z,6.32
2022-11-12T07:22:24.530Z,5.78
2022-11-12T07:25:31.073Z,7.25
2022-11-12T07:28:37.749Z,5.90
2022-11-12T07:31:44.369Z,6.60
2022-11-12T07:34:51.516Z,7.07
2022-11-12T07:37:59.746Z,6.35
2022-11-12T07:41:08.681Z,6.85
2022-11-12T07:44:15.390Z,5.70
2022-11-12T07:47:22.312Z,6.43
2022-11-12T07:50:29.020Z,6.55
2022-11-12T07:53:37.058Z,7.20
2022-11-12T07:56:43.775Z,6.28
2022-11-12T07:59:50.312Z,6.43
2022-11-12T08:03:00.446Z,6.18
2022-11-12T08:06:07.228Z,6.95
2022-11-12T08:09:15.516Z,6.75
2022-11-12T08:12:22.049Z,6.95
2022-11-12T08:15:28.831Z,6.77
2022-11-12T08:18:35.604Z,6.75
2022-11-12T08:21:42.643Z,8.15
2022-11-12T08:24:50.879Z,7.63
2022-11-12T08:27:59.281Z,6.80
2022-11-12T08:31:07.050Z,7.27
2022-11-12T08:34:16.222Z,6.25
2022-11-12T08:37:26.296Z,6.75
2022-11-12T08:40:34.883Z,6.13
2022-11-12T08:43:43.199Z,6.80
2022-11-12T08:46:49.611Z,7.43
2022-11-12T08:49:56.324Z,7.40
2022-11-12T08:53:03.902Z,7.55
2022-11-12T08:56:11.932Z,6.78
2022-11-12T08:59:18.462Z,6.03
2022-11-12T09:02:25.111Z,6.87
2022-11-12T09:05:31.812Z,5.95
2022-11-12T09:08:40.049Z,5.90
2022-11-12T09:11:48.064Z,6.13
2022-11-12T09:14:59.562Z,5.80
2022-11-12T09:18:19.226Z,5.77
2022-11-12T09:21:25.891Z,5.90
2022-11-12T09:24:32.493Z,6.18
2022-11-12T09:27:44.362Z,5.53
2022-11-12T09:30:55.679Z,6.68
2022-11-12T09:34:02.082Z,6.37
2022-11-12T09:37:08.963Z,6.68
2022-11-12T09:40:19.561Z,6.22
2022-11-12T09:43:31.082Z,6.10
2022-11-12T09:46:44.723Z,6.30
2022-11-12T09:49:58.362Z,6.00
2022-11-12T09:53:12.673Z,5.78
2022-11-12T09:56:21.960Z,4.93
2022-11-12T09:59:33.180Z,5.45
2022-11-12T10:02:48.228Z,5.10
2022-11-12T10:06:00.162Z,5.17
2022-11-12T10:09:12.535Z,5.45
2022-11-12T10:12:35.239Z,4.82
2022-11-12T10:16:16.870Z,4.78
2022-11-12T10:19:34.100Z,5.45
2022-11-12T10:22:59.012Z,4.87
2022-11-12T10:26:13.850Z,5.07
2022-11-12T10:29:28.467Z,5.22
2022-11-12T10:32:38.494Z,5.38
2022-11-12T10:35:45.213Z,4.43
2022-11-12T10:38:55.259Z,4.77
2022-11-12T10:42:05.664Z,4.75
2022-11-12T10:45:22.252Z,4.32
2022-11-12T10:48:34.231Z,4.78
2022-11-12T10:51:41.796Z,4.75
2022-11-12T10:54:54.864Z,4.47
2022-11-12T10:58:16.700Z,5.15
2022-11-12T11:01:23.431Z,4.25
2022-11-12T11:04:35.089Z,4.78
2022-11-12T11:07:51.282Z,4.35
2022-11-12T11:11:16.641Z,4.60
2022-11-12T11:14:33.095Z,4.18
2022-11-12T11:17:39.869Z,4.78
2022-11-12T11:20:55.423Z,4.10
2022-11-12T11:24:11.723Z,4.25
2022-11-12T11:27:30.729Z,4.30
2022-11-12T11:30:40.389Z,4.80
2022-11-12T11:33:55.572Z,4.72
2022-11-12T11:37:15.413Z,4.13
2022-11-12T11:40:28.391Z,3.90
2022-11-12T11:43:48.692Z,4.10
2022-11-12T11:47:07.043Z,4.47
2022-11-12T11:50:27.315Z,4.32
2022-11-12T11:53:47.641Z,4.28
2022-11-12T11:56:59.794Z,3.97
2022-11-12T12:00:16.855Z,4.77
2022-11-12T12:03:32.825Z,4.30
2022-11-12T12:06:49.957Z,4.25
2022-11-12T12:10:09.339Z,4.05
2022-11-12T12:13:25.930Z,4.25
2022-11-12T12:16:52.058Z,3.63
2022-11-12T12:20:06.709Z,3.90
2022-11-12T12:23:22.006Z,4.07
2022-11-12T12:26:37.281Z,3.95
2022-11-12T12:29:50.117Z,3.92
2022-11-12T12:33:02.717Z,3.97
2022-11-12T12:36:12.771Z,3.60
2022-11-12T12:39:21.759Z,3.95
2022-11-12T12:42:34.262Z,3.72
2022-11-12T12:45:44.162Z,3.88
2022-11-12T12:48:54.320Z,3.80
2022-11-12T12:52:01.393Z,3.83
2022-11-12T12:55:28.462Z,4.18
2022-11-12T12:58:45.219Z,4.07
2022-11-12T13:01:58.531Z,4.20
2022-11-12T13:05:06.106Z,3.53
2022-11-12T13:08:15.410Z,3.67
2022-11-12T13:12:06.807Z,3.72
2022-11-12T13:15:17.788Z,3.80
2022-11-12T13:19:00.922Z,3.90
2022-11-12T13:22:35.248Z,4.03
2022-11-12T13:25:42.072Z,3.95
2022-11-12T13:29:21.593Z,4.97
2022-11-12T13:32:42.471Z,3.78
2022-11-12T13:35:49.464Z,4.35
2022-11-12T13:39:12.321Z,3.60
2022-11-12T13:42:37.470Z,3.53
2022-11-12T13:45:49.238Z,3.97
2022-11-12T13:49:01.141Z,3.60
2022-11-12T13:52:08.222Z,4.43
2022-11-12T13:55:17.034Z,4.20
2022-11-12T13:58:32.199Z,3.80
2022-11-12T14:01:38.940Z,4.47
2022-11-12T14:04:47.433Z,4.30
2022-11-12T14:08:27.144Z,5.00
2022-11-12T14:11:47.591Z,4.60
2022-11-12T14:15:11.982Z,4.32
2022-11-12T14:18:26.725Z,4.65
2022-11-12T14:21:35.173Z,4.18
2022-11-12T14:24:42.259Z,4.05
2022-11-12T14:27:50.191Z,4.87
2022-11-12T14:30:57.356Z,4.68
2022-11-12T14:34:23.676Z,4.60
2022-11-12T14:37:43.070Z,4.68
2022-11-12T14:40:53.743Z,4.38
2022-11-12T14:44:12.563Z,3.70
2022-11-12T14:47:19.860Z,4.80
2022-11-12T14:50:31.716Z,4.30
2022-11-12T14:53:46.239Z,4.57
2022-11-12T14:56:53.398Z,4.22
2022-11-12T15:00:00.151Z,4.10
2022-11-12T15:03:07.428Z,4.13
2022-11-12T15:06:14.154Z,4.05
2022-11-12T15:09:34.212Z,4.68
2022-11-12T15:12:41.092Z,4.88
2022-11-12T15:15:53.668Z,4.67
2022-11-12T15:19:19.979Z,4.47
2022-11-12T15:22:26.517Z,4.35
2022-11-12T15:25:34.551Z,4.63
2022-11-12T15:28:41.347Z,4.38
2022-11-12T15:31:50.612Z,4.80
2022-11-12T15:34:57.201Z,5.25
2022-11-12T15:38:08.180Z,6.45
2022-11-12T15:41:27.166Z,5.72
2022-11-12T15:44:35.910Z,7.03
2022-11-12T15:47:42.948Z,5.50
2022-11-12T15:50:50.661Z,4.15
2022-11-12T15:53:57.354Z,4.10
2022-11-12T15:57:05.660Z,3.97
2022-11-12T16:00:17.701Z,3.85
2022-11-12T16:03:24.566Z,3.97
2022-11-12T16:06:31.511Z,4.13
2022-11-12T16:09:39.159Z,4.60
2022-11-12T16:12:48.733Z,4.80
2022-11-12T16:15:57.754Z,4.55
2022-11-12T16:19:04.117Z,4.50
2022-11-12T16:22:13.725Z,4.15
2022-11-12T16:25:21.323Z,4.85
2022-11-12T16:28:29.407Z,5.00
2022-11-12T16:31:36.033Z,4.72
2022-11-12T16:34:43.807Z,4.80
2022-11-12T16:37:51.571Z,4.93
2022-11-12T16:40:58.025Z,5.32
2022-11-12T16:44:06.569Z,5.28
2022-11-12T16:47:13.519Z,5.30
2022-11-12T16:50:22.332Z,4.60
2022-11-12T16:53:29.322Z,4.93
2022-11-12T16:56:36.508Z,4.72
2022-11-12T16:59:45.146Z,5.80
2022-11-12T17:02:53.696Z,5.35
2022-11-12T17:06:00.255Z,5.20
2022-11-12T17:09:08.687Z,4.95
2022-11-12T17:12:15.292Z,5.20
2022-11-12T17:15:23.318Z,4.90
2022-11-12T17:18:29.965Z,4.75
2022-11-12T17:21:36.633Z,4.90
2022-11-12T17:24:43.174Z,4.50
2022-11-12T17:27:49.895Z,5.68
2022-11-12T17:31:06.282Z,5.30
2022-11-12T17:34:13.000Z,4.82
2022-11-12T17:37:19.950Z,4.47
2022-11-12T17:40:26.632Z,5.43
2022-11-12T17:43:33.622Z,5.03
2022-11-12T17:46:41.667Z,4.57
2022-11-12T17:49:48.866Z,5.18
2022-11-12T17:52:55.992Z,4.63
2022-11-12T17:56:02.993Z,5.07
2022-11-12T17:59:09.635Z,4.68
2022-11-12T18:02:17.641Z,4.50
2022-11-12T18:05:24.523Z,5.47
2022-11-12T18:08:31.368Z,5.10
2022-11-12T18:11:44.207Z,4.65
2022-11-12T18:14:50.853Z,4.78
2022-11-12T18:17:59.085Z,5.28
2022-11-12T18:21:06.373Z,5.22
2022-11-12T18:24:16.324Z,5.10
2022-11-12T18:27:27.377Z,4.82
2022-11-12T18:30:34.521Z,4.38
2022-11-12T18:33:42.964Z,4.60
2022-11-12T18:36:49.328Z,5.80
2022-11-12T18:39:56.048Z,5.67
2022-11-12T18:43:02.703Z,5.40
2022-11-12T18:46:11.387Z,5.88
2022-11-12T18:49:19.316Z,5.60
2022-11-12T18:52:26.149Z,6.10
2022-11-12T18:55:32.973Z,5.37
2022-11-12T18:58:39.759Z,5.60
2022-11-12T19:01:46.296Z,6.35
2022-11-12T19:04:55.522Z,6.18
2022-11-12T19:08:02.249Z,6.18
2022-11-12T19:11:11.480Z,6.30
2022-11-12T19:14:18.002Z,6.43
2022-11-12T19:17:28.302Z,6.93
2022-11-12T19:20:38.653Z,7.47
2022-11-12T19:23:47.840Z,6.85
2022-11-12T19:26:56.937Z,6.47
2022-11-12T19:30:05.916Z,6.60
2022-11-12T19:33:13.051Z,7.90
2022-11-12T19:36:23.225Z,6.38
2022-11-12T19:39:29.827Z,6.57
2022-11-12T19:42:36.581Z,5.87
2022-11-12T19:45:43.086Z,6.35
2022-11-12T19:48:51.301Z,6.57
2022-11-12T19:51:59.364Z,7.50
2022-11-12T19:55:06.920Z,8.18
2022-11-12T19:58:13.703Z,8.27
2022-11-12T20:01:21.362Z,7.63
2022-11-12T20:04:28.187Z,8.75
2022-11-12T20:07:36.402Z,8.32
2022-11-12T20:10:43.285Z,8.02
2022-11-12T20:13:53.318Z,7.47
2022-11-12T20:16:59.792Z,7.53
2022-11-12T20:20:09.537Z,7.70
2022-11-12T20:23:17.904Z,7.93
2022-11-12T20:26:26.908Z,11.18
2022-11-12T20:29:33.714Z,12.07
2022-11-12T20:32:40.243Z,11.15
2022-11-12T20:35:50.816Z,10.98
2022-11-12T20:38:58.575Z,11.02
2022-11-12T20:42:05.344Z,10.00
2022-11-12T20:45:12.272Z,8.80
2022-11-12T20:48:20.263Z,9.05
2022-11-12T20:51:29.768Z,8.38
2022-11-12T20:54:37.681Z,8.60
2022-11-12T20:57:44.314Z,8.27
2022-11-12T21:00:51.863Z,8.77
2022-11-12T21:03:59.392Z,8.68
2022-11-12T21:07:06.382Z,9.25
2022-11-12T21:10:14.972Z,8.45
2022-11-12T21:13:22.004Z,9.63
2022-11-12T21:16:28.669Z,8.40
2022-11-12T21:19:35.378Z,9.00
2022-11-12T21:22:41.993Z,9.80
2022-11-12T21:25:50.142Z,8.50
2022-11-12T21:28:57.342Z,9.45
2022-11-12T21:32:03.641Z,9.90
2022-11-12T21:35:10.982Z,9.60
2022-11-12T21:38:17.420Z,9.90
2022-11-12T21:41:27.352Z,9.25
2022-11-12T21:44:34.054Z,9.70
2022-11-12T21:47:40.845Z,10.00
2022-11-12T21:50:47.626Z,9.55
2022-11-12T21:53:55.454Z,10.10
2022-11-12T21:57:03.092Z,9.00
2022-11-12T22:00:39.732Z,9.50
2022-11-12T22:03:38.126Z,9.00
2022-11-12T22:06:44.283Z,9.05
2022-11-12T22:09:56.381Z,10.02
2022-11-12T22:13:25.851Z,9.13
2022-11-12T22:16:31.613Z,9.95
2022-11-12T22:19:39.160Z,10.33
2022-11-12T22:22:45.772Z,9.02
2022-11-12T22:25:53.216Z,10.40
2022-11-12T22:29:01.457Z,9.35
2022-11-12T22:32:07.996Z,9.45
2022-11-12T22:35:14.682Z,9.37
2022-11-12T22:38:21.455Z,9.13
2022-11-12T22:41:29.749Z,9.38
2022-11-12T22:44:37.885Z,8.65
2022-11-12T22:47:44.362Z,9.75
2022-11-12T22:50:51.115Z,10.17
2022-11-12T22:53:59.215Z,10.10
2022-11-12T22:57:05.878Z,10.63
2022-11-12T23:00:17.424Z,10.18
2022-11-12T23:03:23.836Z,10.57
2022-11-12T23:06:31.872Z,10.83
2022-11-12T23:09:38.971Z,11.27
2022-11-12T23:12:45.826Z,10.73
2022-11-12T23:15:53.832Z,9.88
2022-11-12T23:19:01.257Z,9.77
2022-11-12T23:22:08.511Z,9.80
2022-11-12T23:25:15.301Z,9.55
2022-11-12T23:28:22.060Z,11.15
2022-11-12T23:31:32.354Z,10.05
2022-11-12T23:34:39.165Z,10.30
2022-11-12T23:37:46.073Z,9.67
2022-11-12T23:40:57.195Z,10.05
2022-11-12T23:44:03.946Z,9.65
2022-11-12T23:47:12.193Z,9.68
2022-11-12T23:50:19.136Z,10.18
2022-11-12T23:53:25.454Z,10.90
2022-11-12T23:56:32.392Z,9.77
2022-11-12T23:59:39.318Z,10.45
